createdAt,value
2018-11-28T00:02:21.677Z,97.40
2018-11-28T00:04:49.867Z,97.40
2018-11-28T00:07:18.069Z,97.40
2018-11-28T00:09:46.259Z,97.40
2018-11-28T00:12:14.500Z,97.40
2018-11-28T00:14:42.702Z,97.50
2018-11-28T00:17:10.917Z,97.50
2018-11-28T00:19:39.280Z,97.50
2018-11-28T00:22:07.548Z,97.50
2018-11-28T00:24:35.745Z,97.50
2018-11-28T00:27:03.924Z,97.50
2018-11-28T00:29:32.137Z,97.50
2018-11-28T00:32:00.339Z,97.60
2018-11-28T00:34:28.534Z,97.60
2018-11-28T00:36:56.746Z,97.70
2018-11-28T00:39:24.948Z,97.70
2018-11-28T00:41:53.211Z,97.70
2018-11-28T00:44:21.458Z,97.70
2018-11-28T00:46:49.655Z,97.60
2018-11-28T00:49:17.880Z,97.60
2018-11-28T00:51:46.144Z,97.60
2018-11-28T00:54:14.382Z,97.60
2018-11-28T00:56:42.629Z,97.60
2018-11-28T00:59:10.845Z,97.60
2018-11-28T01:01:39.030Z,97.60
2018-11-28T01:04:07.304Z,97.50
2018-11-28T01:06:35.535Z,97.60
2018-11-28T01:09:04.155Z,97.60
2018-11-28T01:11:32.353Z,97.60
2018-11-28T01:14:00.573Z,97.60
2018-11-28T01:16:28.744Z,97.60
2018-11-28T01:18:56.982Z,97.60
2018-11-28T01:21:25.194Z,97.60
2018-11-28T01:23:53.436Z,97.60
2018-11-28T01:26:21.672Z,97.70
2018-11-28T01:28:49.899Z,97.80
2018-11-28T01:31:18.125Z,97.90
2018-11-28T01:33:46.313Z,98.00
2018-11-28T01:36:14.521Z,98.00
2018-11-28T01:38:42.700Z,97.90
2018-11-28T01:41:10.922Z,98.00
2018-11-28T01:43:39.117Z,98.00
2018-11-28T01:46:07.328Z,98.00
2018-11-28T01:48:35.496Z,98.00
2018-11-28T01:51:03.688Z,98.00
2018-11-28T01:53:31.881Z,97.90
2018-11-28T01:56:00.077Z,97.90
2018-11-28T01:58:28.292Z,97.90
2018-11-28T02:00:56.501Z,97.90
2018-11-28T02:03:24.723Z,97.90
2018-11-28T02:05:52.941Z,98.00
2018-11-28T02:08:21.146Z,98.00
2018-11-28T02:10:49.352Z,98.10
2018-11-28T02:13:17.598Z,98.10
2018-11-28T02:15:45.821Z,98.00
2018-11-28T02:18:14.020Z,97.90
2018-11-28T02:20:42.290Z,98.10
2018-11-28T02:23:10.520Z,97.90
2018-11-28T02:25:38.730Z,98.00
2018-11-28T02:28:06.961Z,98.00
2018-11-28T02:30:35.180Z,98.00
2018-11-28T02:33:03.452Z,98.00
2018-11-28T02:35:31.674Z,98.00
2018-11-28T02:37:59.874Z,98.00
2018-11-28T02:40:28.099Z,98.00
2018-11-28T02:42:56.308Z,98.00
2018-11-28T02:45:24.527Z,97.90
2018-11-28T02:47:52.943Z,97.90
2018-11-28T02:50:21.161Z,97.90
2018-11-28T02:52:49.361Z,97.90
2018-11-28T02:55:18.135Z,98.00
2018-11-28T02:57:48.331Z,98.00
2018-11-28T03:00:18.464Z,98.00
2018-11-28T03:02:46.709Z,98.00
2018-11-28T03:05:14.965Z,98.00
2018-11-28T03:07:43.170Z,98.00
2018-11-28T03:10:14.444Z,98.00
2018-11-28T03:12:42.644Z,98.00
2018-11-28T03:15:12.620Z,98.00
2018-11-28T03:17:40.851Z,98.00
2018-11-28T03:20:10.093Z,98.00
2018-11-28T03:22:38.268Z,98.00
2018-11-28T03:25:08.289Z,98.00
2018-11-28T03:27:36.476Z,98.00
2018-11-28T03:30:08.919Z,98.00
2018-11-28T03:32:37.108Z,97.90
2018-11-28T03:35:06.106Z,97.90
2018-11-28T03:37:34.289Z,97.90
2018-11-28T03:40:02.479Z,97.90
2018-11-28T03:42:30.664Z,97.90
2018-11-28T03:44:58.849Z,97.90
2018-11-28T03:47:27.046Z,97.90
2018-11-28T03:49:55.235Z,97.90
2018-11-28T03:52:23.421Z,98.00
2018-11-28T03:54:51.618Z,98.00
2018-11-28T03:57:19.825Z,98.10
2018-11-28T03:59:48.033Z,98.20
2018-11-28T04:02:16.265Z,98.20
2018-11-28T04:04:44.442Z,98.30
2018-11-28T04:07:12.628Z,98.30
2018-11-28T04:09:40.819Z,98.30
2018-11-28T04:12:09.001Z,98.30
2018-11-28T04:14:37.252Z,98.40
2018-11-28T04:17:05.729Z,98.40
2018-11-28T04:19:33.918Z,98.40
2018-11-28T04:22:02.110Z,98.40
2018-11-28T04:24:30.303Z,98.40
2018-11-28T04:26:58.496Z,98.50
2018-11-28T04:29:26.681Z,98.30
2018-11-28T04:31:54.866Z,98.30
2018-11-28T04:34:23.037Z,98.30
2018-11-28T04:36:51.233Z,98.30
2018-11-28T04:39:19.421Z,98.30
2018-11-28T04:41:47.608Z,98.30
2018-11-28T04:44:15.777Z,98.20
2018-11-28T04:46:43.956Z,98.20
2018-11-28T04:49:12.145Z,98.30
2018-11-28T04:51:40.340Z,98.20
2018-11-28T04:54:08.528Z,98.20
2018-11-28T04:56:36.713Z,98.10
2018-11-28T04:59:05.212Z,98.00
2018-11-28T05:01:33.380Z,98.00
2018-11-28T05:04:01.541Z,98.00
2018-11-28T05:07:42.065Z,98.00
2018-11-28T05:10:12.345Z,97.90
2018-11-28T05:12:40.521Z,97.90
2018-11-28T05:15:10.840Z,97.90
2018-11-28T05:17:39.108Z,97.90
2018-11-28T05:20:08.940Z,98.00
2018-11-28T05:22:37.148Z,98.00
2018-11-28T05:25:07.861Z,98.00
2018-11-28T05:27:36.037Z,98.10
2018-11-28T05:30:05.520Z,98.00
2018-11-28T05:32:33.677Z,98.00
2018-11-28T05:35:01.852Z,98.00
2018-11-28T05:37:30.009Z,98.00
2018-11-28T05:39:58.175Z,98.00
2018-11-28T05:42:26.353Z,98.00
2018-11-28T05:44:54.546Z,98.10
2018-11-28T05:47:22.724Z,98.10
2018-11-28T05:49:50.897Z,98.10
2018-11-28T05:52:19.074Z,98.10
2018-11-28T05:54:47.249Z,98.10
2018-11-28T05:57:15.440Z,98.10
2018-11-28T05:59:43.624Z,98.10
2018-11-28T06:02:11.808Z,98.10
2018-11-28T06:04:40.012Z,98.10
2018-11-28T06:07:08.189Z,98.10
2018-11-28T06:09:36.397Z,98.10
2018-11-28T06:12:04.577Z,98.10
2018-11-28T06:14:32.764Z,98.10
2018-11-28T06:17:00.948Z,98.20
2018-11-28T06:19:29.157Z,98.10
2018-11-28T06:21:57.341Z,98.20
2018-11-28T06:24:25.536Z,98.20
2018-11-28T06:26:53.712Z,98.20
2018-11-28T06:29:21.924Z,98.30
2018-11-28T06:31:50.101Z,98.50
2018-11-28T06:34:18.300Z,98.70
2018-11-28T06:36:46.489Z,98.70
2018-11-28T06:39:14.703Z,98.80
2018-11-28T06:41:42.896Z,98.80
2018-11-28T06:44:11.544Z,98.90
2018-11-28T06:46:39.741Z,98.90
2018-11-28T06:49:07.945Z,98.90
2018-11-28T06:51:36.124Z,98.90
2018-11-28T06:54:04.488Z,98.90
2018-11-28T06:56:32.653Z,99.00
2018-11-28T06:59:00.876Z,99.00
2018-11-28T07:01:29.083Z,99.00
2018-11-28T07:03:57.275Z,99.00
2018-11-28T07:06:25.489Z,99.00
2018-11-28T07:08:53.681Z,99.00
2018-11-28T07:11:21.870Z,99.00
2018-11-28T07:13:49.371Z,99.00
2018-11-28T07:16:16.968Z,99.00
2018-11-28T07:18:50.112Z,99.00
2018-11-28T07:21:17.617Z,99.00
2018-11-28T07:23:45.112Z,99.00
2018-11-28T07:26:12.611Z,99.00
2018-11-28T07:28:40.097Z,99.00
2018-11-28T07:31:07.603Z,99.00
2018-11-28T07:33:35.087Z,99.10
2018-11-28T07:36:02.585Z,99.10
2018-11-28T07:38:30.071Z,99.10
2018-11-28T07:40:57.587Z,99.10
2018-11-28T07:43:25.064Z,99.10
2018-11-28T07:45:52.734Z,99.10
2018-11-28T07:48:20.205Z,99.10
2018-11-28T07:50:47.696Z,99.10
2018-11-28T07:53:15.455Z,99.10
2018-11-28T07:55:43.137Z,99.10
2018-11-28T07:58:10.666Z,99.10
2018-11-28T08:00:38.240Z,99.10
2018-11-28T08:03:06.412Z,99.10
2018-11-28T08:05:35.201Z,99.10
2018-11-28T08:08:02.700Z,99.10
2018-11-28T08:10:30.193Z,99.10
2018-11-28T08:12:57.866Z,99.10
2018-11-28T08:15:25.363Z,99.10
2018-11-28T08:17:52.881Z,99.10
2018-11-28T08:20:20.396Z,99.10
2018-11-28T08:22:47.920Z,99.10
2018-11-28T08:25:16.004Z,99.10
2018-11-28T08:27:44.060Z,99.10
2018-11-28T08:30:17.137Z,99.10
2018-11-28T08:32:44.657Z,99.10
2018-11-28T08:35:12.481Z,99.10
2018-11-28T08:37:39.993Z,99.10
2018-11-28T08:40:08.619Z,99.10
2018-11-28T08:42:36.108Z,99.00
2018-11-28T08:45:03.641Z,99.00
2018-11-28T08:47:31.161Z,99.00
2018-11-28T08:49:58.676Z,98.90
2018-11-28T08:52:26.188Z,98.90
2018-11-28T08:54:53.753Z,98.90
2018-11-28T08:57:21.485Z,98.70
2018-11-28T08:59:49.005Z,98.70
2018-11-28T09:02:16.534Z,98.80
2018-11-28T09:04:44.029Z,98.70
2018-11-28T09:07:11.562Z,98.70
2018-11-28T09:09:39.209Z,98.60
2018-11-28T09:12:06.725Z,98.60
2018-11-28T09:14:34.412Z,98.50
2018-11-28T09:17:01.924Z,98.50
2018-11-28T09:19:29.473Z,98.60
2018-11-28T09:21:57.013Z,98.50
2018-11-28T09:24:24.620Z,98.40
2018-11-28T09:26:52.213Z,98.50
2018-11-28T09:29:19.976Z,98.40
2018-11-28T09:31:47.649Z,98.20
2018-11-28T09:34:15.175Z,97.90
2018-11-28T09:36:42.803Z,97.80
2018-11-28T09:39:10.400Z,97.80
2018-11-28T09:41:38.257Z,97.60
2018-11-28T09:44:05.922Z,97.20
2018-11-28T09:46:33.419Z,97.30
2018-11-28T09:49:01.092Z,97.40
2018-11-28T09:51:28.595Z,97.10
2018-11-28T09:53:56.204Z,96.80
2018-11-28T09:56:23.718Z,96.00
2018-11-28T09:58:51.240Z,96.00
2018-11-28T10:01:18.747Z,95.50
2018-11-28T10:03:46.338Z,95.40
2018-11-28T10:06:13.853Z,95.80
2018-11-28T10:08:41.365Z,96.10
2018-11-28T10:11:08.846Z,96.40
2018-11-28T10:13:36.366Z,96.50
2018-11-28T10:16:03.861Z,96.30
2018-11-28T10:18:31.387Z,95.80
2018-11-28T10:20:58.896Z,96.00
2018-11-28T10:23:26.402Z,95.90
2018-11-28T10:25:53.890Z,95.80
2018-11-28T10:28:21.397Z,95.60
2018-11-28T10:30:48.893Z,95.60
2018-11-28T10:33:16.472Z,95.70
2018-11-28T10:35:43.972Z,94.80
2018-11-28T10:38:11.487Z,94.10
2018-11-28T10:40:38.989Z,94.00
2018-11-28T10:43:07.029Z,94.00
2018-11-28T10:45:34.709Z,93.80
2018-11-28T10:48:02.229Z,94.50
2018-11-28T10:50:29.741Z,94.40
2018-11-28T10:52:57.238Z,94.80
2018-11-28T10:55:25.289Z,94.80
2018-11-28T10:57:52.791Z,94.50
2018-11-28T11:00:27.104Z,94.40
2018-11-28T11:03:00.141Z,94.20
2018-11-28T11:05:33.117Z,94.00
2018-11-28T11:08:06.276Z,93.80
2018-11-28T11:10:39.075Z,93.80
2018-11-28T11:13:12.634Z,93.80
2018-11-28T11:15:40.117Z,93.70
2018-11-28T11:18:10.761Z,93.80
2018-11-28T11:20:36.809Z,93.80
2018-11-28T11:23:04.815Z,93.60
2018-11-28T11:25:32.325Z,93.70
2018-11-28T11:27:59.829Z,93.50
2018-11-28T11:30:27.345Z,93.90
2018-11-28T11:32:54.837Z,93.90
2018-11-28T11:35:22.344Z,93.50
2018-11-28T11:37:49.837Z,93.10
2018-11-28T11:40:17.354Z,93.00
2018-11-28T11:42:44.849Z,93.00
2018-11-28T11:45:12.926Z,93.40
2018-11-28T11:47:40.454Z,93.20
2018-11-28T11:50:11.887Z,93.10
2018-11-28T11:52:39.388Z,93.00
2018-11-28T11:55:07.402Z,93.40
2018-11-28T11:57:34.933Z,93.20
2018-11-28T12:00:02.977Z,92.50
2018-11-28T12:02:30.479Z,92.40
2018-11-28T12:04:57.991Z,92.10
2018-11-28T12:07:25.505Z,92.40
2018-11-28T12:09:53.017Z,92.50
2018-11-28T12:12:20.577Z,92.80
2018-11-28T12:14:48.147Z,92.40
2018-11-28T12:17:15.647Z,92.40
2018-11-28T12:19:43.164Z,92.60
2018-11-28T12:22:10.688Z,92.60
2018-11-28T12:24:38.280Z,92.60
2018-11-28T12:27:05.802Z,92.40
2018-11-28T12:29:33.309Z,92.50
2018-11-28T12:32:00.823Z,92.60
2018-11-28T12:34:28.314Z,92.70
2018-11-28T12:36:55.829Z,92.70
2018-11-28T12:41:50.865Z,92.80
2018-11-28T12:44:18.376Z,92.70
2018-11-28T12:46:45.902Z,92.50
2018-11-28T12:49:13.415Z,92.60
2018-11-28T12:51:40.950Z,92.80
2018-11-28T12:54:08.649Z,92.50
2018-11-28T12:56:36.172Z,92.80
2018-11-28T12:59:03.684Z,92.90
2018-11-28T13:01:31.204Z,92.80
2018-11-28T13:03:58.710Z,92.80
2018-11-28T13:06:26.259Z,92.80
2018-11-28T13:08:53.752Z,92.90
2018-11-28T13:11:21.258Z,92.90
2018-11-28T13:13:48.837Z,93.00
2018-11-28T13:16:16.349Z,92.90
2018-11-28T13:18:43.846Z,92.90
2018-11-28T13:21:11.364Z,92.70
2018-11-28T13:23:39.246Z,93.00
2018-11-28T13:26:06.758Z,93.10
2018-11-28T13:28:34.261Z,93.00
2018-11-28T13:31:01.767Z,93.30
2018-11-28T13:33:29.258Z,93.20
2018-11-28T13:35:56.763Z,93.30
2018-11-28T13:38:24.256Z,93.40
2018-11-28T13:40:51.765Z,93.50
2018-11-28T13:43:19.273Z,93.20
2018-11-28T13:45:47.430Z,93.30
2018-11-28T13:48:15.257Z,93.40
2018-11-28T13:50:42.737Z,93.60
2018-11-28T13:53:15.334Z,93.50
2018-11-28T13:56:30.172Z,93.60
2018-11-28T13:58:13.401Z,93.60
2018-11-28T14:00:40.901Z,93.60
2018-11-28T14:03:08.449Z,93.50
2018-11-28T14:05:35.988Z,93.50
2018-11-28T14:08:03.508Z,93.40
2018-11-28T14:10:31.018Z,93.80
2018-11-28T14:12:58.567Z,93.90
2018-11-28T14:15:26.072Z,94.10
2018-11-28T14:17:55.137Z,94.20
2018-11-28T14:20:22.640Z,94.00
2018-11-28T14:22:50.173Z,93.80
2018-11-28T14:25:17.687Z,93.70
2018-11-28T14:27:45.209Z,94.00
2018-11-28T14:30:16.236Z,94.10
2018-11-28T14:32:44.068Z,94.00
2018-11-28T14:35:11.636Z,94.20
2018-11-28T14:37:39.176Z,94.40
2018-11-28T14:40:10.548Z,94.30
2018-11-28T14:42:38.117Z,94.30
2018-11-28T14:45:07.798Z,94.30
2018-11-28T14:47:35.316Z,94.40
2018-11-28T14:50:02.888Z,94.50
2018-11-28T14:52:30.428Z,94.60
2018-11-28T14:54:58.016Z,94.50
2018-11-28T14:57:25.548Z,94.50
2018-11-28T14:59:53.119Z,94.50
2018-11-28T15:02:20.664Z,94.50
2018-11-28T15:04:48.188Z,94.70
2018-11-28T15:07:15.735Z,94.60
2018-11-28T15:10:00.906Z,94.70
2018-11-28T15:12:29.105Z,94.70
2018-11-28T15:14:56.645Z,94.90
2018-11-28T15:17:24.180Z,95.30
2018-11-28T15:19:51.713Z,95.30
2018-11-28T15:22:19.240Z,95.30
2018-11-28T15:24:46.747Z,95.20
2018-11-28T15:27:14.280Z,95.30
2018-11-28T15:29:41.808Z,95.10
2018-11-28T15:32:09.333Z,95.10
2018-11-28T15:34:36.850Z,95.20
2018-11-28T15:37:04.465Z,95.20
2018-11-28T15:39:31.977Z,95.20
2018-11-28T15:41:59.501Z,95.20
2018-11-28T15:44:27.017Z,95.50
2018-11-28T15:46:54.544Z,95.00
2018-11-28T15:49:22.098Z,94.90
2018-11-28T15:51:49.615Z,94.90
2018-11-28T15:54:18.327Z,95.00
2018-11-28T15:56:45.866Z,95.20
2018-11-28T15:59:13.422Z,95.20
2018-11-28T16:01:41.076Z,95.20
2018-11-28T16:04:09.672Z,95.30
2018-11-28T16:06:37.188Z,95.30
2018-11-28T16:09:06.658Z,95.30
2018-11-28T16:11:35.105Z,95.50
2018-11-28T16:14:01.761Z,95.40
2018-11-28T16:16:29.305Z,95.40
2018-11-28T16:18:57.885Z,95.30
2018-11-28T16:21:24.329Z,95.40
2018-11-28T16:23:52.665Z,95.50
2018-11-28T16:26:19.521Z,95.60
2018-11-28T16:28:47.032Z,95.60
2018-11-28T16:31:14.541Z,95.50
2018-11-28T16:33:42.058Z,95.50
2018-11-28T16:36:09.553Z,95.50
2018-11-28T16:38:37.064Z,95.60
2018-11-28T16:41:04.582Z,95.40
2018-11-28T16:43:32.096Z,95.40
2018-11-28T16:45:59.597Z,95.30
2018-11-28T16:48:27.114Z,95.40
2018-11-28T16:50:54.638Z,95.40
2018-11-28T16:53:22.185Z,95.30
2018-11-28T16:55:49.699Z,95.30
2018-11-28T16:58:17.218Z,95.40
2018-11-28T17:00:44.820Z,95.60
2018-11-28T17:03:12.340Z,95.60
2018-11-28T17:05:39.871Z,95.50
2018-11-28T17:08:08.138Z,95.50
2018-11-28T17:10:35.710Z,95.40
2018-11-28T17:13:04.303Z,95.30
2018-11-28T17:15:31.845Z,95.30
2018-11-28T17:17:59.368Z,95.40
2018-11-28T17:20:27.295Z,95.40
2018-11-28T17:22:55.379Z,95.60
2018-11-28T17:25:24.411Z,95.80
2018-11-28T17:27:52.313Z,96.00
2018-11-28T17:30:21.524Z,95.90
2018-11-28T17:32:49.054Z,95.90
2018-11-28T17:35:16.572Z,95.70
2018-11-28T17:37:44.129Z,95.50
2018-11-28T17:40:14.157Z,95.60
2018-11-28T17:42:41.960Z,95.50
2018-11-28T17:45:10.864Z,95.70
2018-11-28T17:47:38.391Z,95.50
2018-11-28T17:50:11.592Z,95.60
2018-11-28T17:52:39.101Z,95.60
2018-11-28T17:55:08.037Z,95.70
2018-11-28T17:57:35.574Z,95.80
2018-11-28T18:00:04.000Z,95.80
2018-11-28T18:02:31.515Z,95.80
2018-11-28T18:04:59.044Z,95.70
2018-11-28T18:07:26.556Z,95.90
2018-11-28T18:09:54.089Z,95.70
2018-11-28T18:12:21.597Z,95.80
2018-11-28T18:14:49.129Z,95.80
2018-11-28T18:17:16.645Z,95.80
2018-11-28T18:19:44.187Z,95.80
2018-11-28T18:22:11.673Z,95.80
2018-11-28T18:24:39.193Z,95.80
2018-11-28T18:27:06.716Z,95.80
2018-11-28T18:29:34.221Z,95.70
2018-11-28T18:32:01.733Z,95.80
2018-11-28T18:34:29.264Z,95.70
2018-11-28T18:36:56.821Z,95.60
2018-11-28T18:39:24.382Z,95.40
2018-11-28T18:41:51.916Z,95.50
2018-11-28T18:44:20.215Z,95.70
2018-11-28T18:46:47.794Z,95.80
2018-11-28T18:49:15.314Z,95.80
2018-11-28T18:51:42.852Z,95.80
2018-11-28T18:54:10.581Z,95.90
2018-11-28T18:56:38.105Z,96.10
2018-11-28T18:59:05.703Z,96.20
2018-11-28T19:01:34.060Z,96.20
2018-11-28T19:04:01.669Z,96.20
2018-11-28T19:06:29.409Z,96.30
2018-11-28T19:08:57.410Z,96.30
2018-11-28T19:11:25.505Z,96.20
2018-11-28T19:13:53.215Z,96.20
2018-11-28T19:16:21.012Z,96.20
2018-11-28T19:18:48.670Z,96.30
2018-11-28T19:21:16.201Z,96.40
2018-11-28T19:23:43.783Z,96.40
2018-11-28T19:26:11.430Z,96.50
2018-11-28T19:28:38.977Z,96.50
2018-11-28T19:31:06.519Z,96.60
2018-11-28T19:33:34.103Z,96.60
2018-11-28T19:36:01.674Z,96.60
2018-11-28T19:38:29.194Z,96.70
2018-11-28T19:40:57.636Z,96.60
2018-11-28T19:43:25.179Z,96.50
2018-11-28T19:45:52.780Z,96.30
2018-11-28T19:48:20.319Z,96.30
2018-11-28T19:50:47.854Z,96.30
2018-11-28T19:53:15.604Z,96.40
2018-11-28T19:55:43.168Z,96.40
2018-11-28T19:58:10.766Z,96.30
2018-11-28T20:00:40.278Z,96.30
2018-11-28T20:03:07.833Z,96.40
2018-11-28T20:05:35.420Z,96.40
2018-11-28T20:08:02.986Z,96.30
2018-11-28T20:10:30.653Z,96.40
2018-11-28T20:12:58.259Z,96.50
2018-11-28T20:15:26.455Z,96.70
2018-11-28T20:17:54.099Z,96.40
2018-11-28T20:20:21.694Z,96.30
2018-11-28T20:22:49.309Z,96.20
2018-11-28T20:25:17.340Z,96.20
2018-11-28T20:27:46.605Z,96.20
2018-11-28T20:30:15.854Z,96.10
2018-11-28T20:32:43.384Z,95.90
2018-11-28T20:35:11.014Z,95.90
2018-11-28T20:37:38.661Z,96.20
2018-11-28T20:40:10.059Z,96.00
2018-11-28T20:42:37.662Z,96.00
2018-11-28T20:45:06.045Z,95.90
2018-11-28T20:47:33.578Z,95.90
2018-11-28T20:50:01.130Z,95.90
2018-11-28T20:52:28.661Z,95.90
2018-11-28T20:54:56.294Z,95.90
2018-11-28T20:57:23.836Z,95.90
2018-11-28T20:59:51.399Z,95.70
2018-11-28T21:02:19.529Z,95.90
2018-11-28T21:04:47.023Z,96.00
2018-11-28T21:07:14.520Z,96.00
2018-11-28T21:09:47.544Z,96.10
2018-11-28T21:12:15.025Z,96.30
2018-11-28T21:14:42.524Z,96.40
2018-11-28T21:17:10.017Z,96.30
2018-11-28T21:19:37.499Z,96.60
2018-11-28T21:22:05.256Z,96.40
2018-11-28T21:24:32.744Z,96.40
2018-11-28T21:27:00.247Z,96.30
2018-11-28T21:29:27.735Z,96.30
2018-11-28T21:31:55.256Z,96.40
2018-11-28T21:34:22.739Z,96.20
2018-11-28T21:36:50.235Z,96.10
2018-11-28T21:39:17.746Z,96.20
2018-11-28T21:41:45.264Z,96.20
2018-11-28T21:44:12.756Z,96.20
2018-11-28T21:46:40.256Z,96.20
2018-11-28T21:49:07.765Z,96.10
2018-11-28T21:51:35.271Z,96.10
2018-11-28T21:54:02.771Z,96.20
2018-11-28T21:56:30.260Z,95.90
2018-11-28T21:58:57.761Z,95.80
2018-11-28T22:01:25.248Z,95.60
2018-11-28T22:03:52.739Z,95.50
2018-11-28T22:06:20.251Z,95.40
2018-11-28T22:08:47.789Z,95.50
2018-11-28T22:11:15.284Z,95.80
2018-11-28T22:13:42.785Z,95.80
2018-11-28T22:16:10.284Z,95.90
2018-11-28T22:18:37.788Z,95.90
2018-11-28T22:21:05.647Z,95.80
2018-11-28T22:23:33.163Z,95.80
2018-11-28T22:26:00.655Z,95.90
2018-11-28T22:28:28.145Z,95.90
2018-11-28T22:30:55.640Z,96.00
2018-11-28T22:33:23.140Z,96.00
2018-11-28T22:35:50.651Z,96.00
2018-11-28T22:38:19.172Z,96.00
2018-11-28T22:40:45.696Z,96.10
2018-11-28T22:43:13.219Z,96.20
2018-11-28T22:45:40.716Z,96.20
2018-11-28T22:48:08.228Z,96.20
2018-11-28T22:50:35.720Z,96.20
2018-11-28T22:53:03.229Z,96.10
2018-11-28T22:55:31.473Z,96.30
2018-11-28T22:57:59.692Z,96.30
2018-11-28T23:00:33.421Z,95.70
2018-11-28T23:03:06.279Z,95.20
2018-11-28T23:05:36.181Z,94.70
2018-11-28T23:08:06.020Z,94.10
2018-11-28T23:10:34.210Z,93.40
2018-11-28T23:13:02.462Z,93.10
2018-11-28T23:15:30.652Z,92.90
2018-11-28T23:17:58.854Z,92.60
2018-11-28T23:20:27.076Z,92.40
2018-11-28T23:22:55.274Z,92.50
2018-11-28T23:25:23.567Z,92.70
2018-11-28T23:27:51.757Z,93.00
2018-11-28T23:30:21.680Z,93.00
2018-11-28T23:32:50.536Z,92.80
2018-11-28T23:35:18.880Z,93.00
2018-11-28T23:37:48.123Z,93.20
2018-11-28T23:40:19.516Z,93.00
2018-11-28T23:42:47.821Z,93.10
2018-11-28T23:45:16.308Z,92.80
2018-11-28T23:47:44.500Z,92.70
2018-11-28T23:50:16.606Z,92.60
2018-11-28T23:52:44.897Z,92.90
2018-11-28T23:55:15.273Z,92.90
2018-11-28T23:57:43.460Z,92.80
